createdAt,value
2022-09-01T00:00:50.463Z,100351.09
2022-09-01T00:03:13.698Z,100345.47
2022-09-01T00:05:38.485Z,100342.59
2022-09-01T00:08:01.775Z,100338.03
2022-09-01T00:10:25.062Z,100334.31
2022-09-01T00:12:48.369Z,100334.81
2022-09-01T00:15:12.059Z,100344.13
2022-09-01T00:17:35.666Z,100347.16
2022-09-01T00:19:58.942Z,100340.22
2022-09-01T00:22:23.586Z,100348.81
2022-09-01T00:24:46.822Z,100347.81
2022-09-01T00:27:10.148Z,100345.78
2022-09-01T00:29:33.464Z,100353.56
2022-09-01T00:31:56.797Z,100349.50
2022-09-01T00:34:20.285Z,100338.00
2022-09-01T00:36:43.675Z,100345.09
2022-09-01T00:39:08.630Z,100341.41
2022-09-01T00:41:35.057Z,100345.47
2022-09-01T00:43:59.250Z,100348.31
2022-09-01T00:46:24.598Z,100343.78
2022-09-01T00:48:55.169Z,100355.59
2022-09-01T00:51:18.809Z,100354.22
2022-09-01T00:53:42.642Z,100357.78
2022-09-01T00:56:08.070Z,100356.25
2022-09-01T00:58:31.561Z,100357.13
2022-09-01T01:00:54.825Z,100357.94
2022-09-01T01:03:18.214Z,100351.34
2022-09-01T01:05:46.809Z,100355.09
2022-09-01T01:08:12.094Z,100353.56
2022-09-01T01:10:37.816Z,100352.38
2022-09-01T01:13:04.900Z,100349.00
2022-09-01T01:15:28.890Z,100351.72
2022-09-01T01:17:52.236Z,100353.91
2022-09-01T01:20:34.133Z,100350.84
2022-09-01T01:23:05.807Z,100351.69
2022-09-01T01:25:34.195Z,100346.13
2022-09-01T01:28:05.898Z,100348.84
2022-09-01T01:30:37.061Z,100346.63
2022-09-01T01:33:01.907Z,100345.81
2022-09-01T01:35:27.115Z,100344.28
2022-09-01T01:37:51.055Z,100351.50
2022-09-01T01:40:15.834Z,100345.44
2022-09-01T01:42:41.142Z,100336.66
2022-09-01T01:45:04.472Z,100340.34
2022-09-01T01:47:28.425Z,100337.16
2022-09-01T01:49:51.862Z,100343.16
2022-09-01T01:52:16.399Z,100339.44
2022-09-01T01:54:41.626Z,100342.84
2022-09-01T01:57:05.291Z,100340.34
2022-09-01T01:59:30.019Z,100350.94
2022-09-01T02:01:53.377Z,100349.22
2022-09-01T02:04:17.258Z,100355.16
2022-09-01T02:06:45.083Z,100357.00
2022-09-01T02:09:10.216Z,100348.38
2022-09-01T02:11:35.817Z,100346.56
2022-09-01T02:14:00.994Z,100337.63
2022-09-01T02:16:26.071Z,100343.34
2022-09-01T02:18:49.878Z,100340.53
2022-09-01T02:21:18.479Z,100335.84
2022-09-01T02:23:42.024Z,100338.69
2022-09-01T02:26:22.302Z,100333.81
2022-09-01T02:28:54.288Z,100332.13
2022-09-01T02:31:23.206Z,100333.31
2022-09-01T02:33:48.728Z,100326.34
2022-09-01T02:36:15.350Z,100328.34
2022-09-01T02:38:38.946Z,100329.41
2022-09-01T02:41:03.484Z,100324.22
2022-09-01T02:43:28.483Z,100324.88
2022-09-01T02:45:55.556Z,100323.53
2022-09-01T02:48:24.522Z,100324.19
2022-09-01T02:50:49.426Z,100320.63
2022-09-01T02:53:15.524Z,100331.47
2022-09-01T02:55:39.724Z,100331.63
2022-09-01T02:58:03.111Z,100330.25
2022-09-01T03:00:31.546Z,100330.28
2022-09-01T03:02:55.191Z,100326.22
2022-09-01T03:05:25.320Z,100331.53
2022-09-01T03:07:54.165Z,100328.25
2022-09-01T03:10:17.614Z,100323.88
2022-09-01T03:12:41.046Z,100330.09
2022-09-01T03:15:04.651Z,100334.47
2022-09-01T03:17:32.294Z,100327.75
2022-09-01T03:19:55.521Z,100327.91
2022-09-01T03:22:18.804Z,100337.34
2022-09-01T03:24:43.748Z,100345.75
2022-09-01T03:27:07.518Z,100347.00
2022-09-01T03:29:30.881Z,100338.56
2022-09-01T03:31:54.306Z,100350.50
2022-09-01T03:34:20.805Z,100348.19
2022-09-01T03:36:50.571Z,100343.00
2022-09-01T03:39:23.938Z,100343.16
2022-09-01T03:41:48.821Z,100337.91
2022-09-01T03:44:16.392Z,100336.22
2022-09-01T03:46:41.619Z,100332.38
2022-09-01T03:49:07.024Z,100328.19
2022-09-01T03:51:32.818Z,100333.88
2022-09-01T03:53:59.124Z,100322.34
2022-09-01T03:56:24.768Z,100326.88
2022-09-01T03:58:49.422Z,100327.38
2022-09-01T04:01:14.055Z,100336.34
2022-09-01T04:03:37.453Z,100332.94
2022-09-01T04:06:03.794Z,100336.28
2022-09-01T04:08:32.502Z,100342.06
2022-09-01T04:10:56.234Z,100344.25
2022-09-01T04:13:19.851Z,100344.44
2022-09-01T04:15:44.470Z,100352.88
2022-09-01T04:18:10.129Z,100349.00
2022-09-01T04:20:40.057Z,100360.25
2022-09-01T04:23:10.869Z,100357.06
2022-09-01T04:25:34.339Z,100353.53
2022-09-01T04:27:58.805Z,100349.25
2022-09-01T04:30:24.952Z,100341.34
2022-09-01T04:32:50.210Z,100345.88
2022-09-01T04:35:17.213Z,100339.38
2022-09-01T04:37:41.293Z,100340.88
2022-09-01T04:40:05.451Z,100333.28
2022-09-01T04:42:30.088Z,100340.06
2022-09-01T04:44:56.497Z,100340.06
2022-09-01T04:47:35.631Z,100348.50
2022-09-01T04:50:03.657Z,100342.91
2022-09-01T04:52:27.046Z,100344.44
2022-09-01T04:54:50.537Z,100343.94
2022-09-01T04:57:14.762Z,100338.88
2022-09-01T04:59:38.246Z,100354.84
2022-09-01T05:02:01.777Z,100344.38
2022-09-01T05:04:27.490Z,100350.50
2022-09-01T05:06:56.362Z,100343.09
2022-09-01T05:09:20.250Z,100343.94
2022-09-01T05:11:50.221Z,100344.75
2022-09-01T05:14:20.658Z,100346.78
2022-09-01T05:16:45.100Z,100351.84
2022-09-01T05:19:14.666Z,100342.75
2022-09-01T05:21:40.295Z,100339.38
2022-09-01T05:24:05.359Z,100346.97
2022-09-01T05:26:31.182Z,100342.41
2022-09-01T05:28:56.162Z,100343.78
2022-09-01T05:31:20.422Z,100340.22
2022-09-01T05:33:46.142Z,100338.03
2022-09-01T05:36:11.648Z,100343.41
2022-09-01T05:38:35.307Z,100340.88
2022-09-01T05:41:02.114Z,100341.22
2022-09-01T05:43:27.882Z,100338.69
2022-09-01T05:46:05.990Z,100343.09
2022-09-01T05:48:31.591Z,100348.97
2022-09-01T05:51:00.461Z,100345.19
2022-09-01T05:53:25.390Z,100348.41
2022-09-01T05:55:52.744Z,100355.97
2022-09-01T05:58:20.109Z,100354.81
2022-09-01T06:00:43.702Z,100356.47
2022-09-01T06:03:09.384Z,100350.25
2022-09-01T06:05:36.058Z,100353.44
2022-09-01T06:08:03.672Z,100353.72
2022-09-01T06:10:27.310Z,100348.03
2022-09-01T06:12:54.434Z,100353.25
2022-09-01T06:15:21.086Z,100360.38
2022-09-01T06:17:47.782Z,100363.13
2022-09-01T06:20:11.553Z,100362.75
2022-09-01T06:22:38.077Z,100361.22
2022-09-01T06:25:02.688Z,100363.56
2022-09-01T06:27:29.662Z,100368.63
2022-09-01T06:29:58.409Z,100370.16
2022-09-01T06:32:25.961Z,100374.00
2022-09-01T06:34:51.511Z,100362.69
2022-09-01T06:37:15.594Z,100363.66
2022-09-01T06:39:41.666Z,100363.91
2022-09-01T06:42:06.315Z,100372.50
2022-09-01T06:44:41.595Z,100373.63
2022-09-01T06:47:07.228Z,100385.88
2022-09-01T06:49:34.848Z,100375.22
2022-09-01T06:52:02.863Z,100381.25
2022-09-01T06:54:26.767Z,100379.69
2022-09-01T06:56:51.369Z,100374.47
2022-09-01T06:59:17.997Z,100378.22
2022-09-01T07:01:45.150Z,100375.00
2022-09-01T07:04:13.258Z,100376.94
2022-09-01T07:10:06.314Z,100370.97
2022-09-01T07:13:04.864Z,100376.88
2022-09-01T07:18:09.702Z,100378.41
2022-09-01T07:21:02.751Z,100380.56
2022-09-01T07:23:25.912Z,100379.38
2022-09-01T07:26:07.317Z,100384.78
2022-09-01T07:28:36.643Z,100390.66
2022-09-01T07:31:48.831Z,100389.97
2022-09-01T07:33:54.339Z,100387.28
2022-09-01T07:36:25.865Z,100390.19
2022-09-01T07:45:25.462Z,100399.44
2022-09-01T07:47:53.363Z,100402.84
2022-09-01T07:51:34.377Z,100399.63
2022-09-01T07:53:04.650Z,100396.88
2022-09-01T07:55:31.995Z,100402.06
2022-09-01T07:57:57.739Z,100398.81
2022-09-01T08:00:22.130Z,100384.75
2022-09-01T08:02:56.999Z,100376.44
2022-09-01T08:05:22.658Z,100390.16
2022-09-01T08:07:54.594Z,100385.28
2022-09-01T08:10:23.773Z,100385.28
2022-09-01T08:12:56.294Z,100382.88
2022-09-01T08:18:03.542Z,100383.34
2022-09-01T08:20:30.481Z,100384.03
2022-09-01T08:23:05.572Z,100380.78
2022-09-01T08:25:31.074Z,100385.81
2022-09-01T08:28:00.371Z,100377.91
2022-09-01T08:30:24.641Z,100381.56
2022-09-01T08:32:48.085Z,100375.94
2022-09-01T08:35:11.605Z,100371.63
2022-09-01T08:37:35.419Z,100370.13
2022-09-01T08:39:58.856Z,100363.50
2022-09-01T08:42:38.129Z,100370.78
2022-09-01T08:45:05.251Z,100366.50
2022-09-01T08:47:35.575Z,100360.25
2022-09-01T08:50:06.240Z,100355.19
2022-09-01T08:52:53.023Z,100355.00
2022-09-01T08:55:22.057Z,100353.56
2022-09-01T08:57:46.397Z,100353.66
2022-09-01T09:00:18.330Z,100358.72
2022-09-01T09:02:47.921Z,100336.47
2022-09-01T09:05:28.074Z,100349.22
2022-09-01T09:08:07.886Z,100335.00
2022-09-01T09:10:32.316Z,100334.00
2022-09-01T09:13:02.559Z,100344.84
2022-09-01T09:15:31.384Z,100341.00
2022-09-01T09:18:00.340Z,100346.72
2022-09-01T09:20:23.842Z,100342.88
2022-09-01T09:22:47.643Z,100342.72
2022-09-01T09:25:11.689Z,100335.41
2022-09-01T09:27:36.202Z,100334.38
2022-09-01T09:30:05.723Z,100332.16
2022-09-01T09:33:15.333Z,100327.09
2022-09-01T09:35:31.801Z,100327.28
2022-09-01T09:37:56.196Z,100331.31
2022-09-01T09:40:21.036Z,100332.25
2022-09-01T09:43:01.611Z,100327.84
2022-09-01T09:45:27.234Z,100328.22
2022-09-01T09:47:51.898Z,100319.25
2022-09-01T09:50:20.855Z,100329.44
2022-09-01T09:52:46.161Z,100320.66
2022-09-01T09:55:22.244Z,100322.91
2022-09-01T09:57:46.048Z,100329.00
2022-09-01T10:00:16.652Z,100318.53
2022-09-01T10:02:40.826Z,100325.53
2022-09-01T10:05:25.395Z,100320.66
2022-09-01T10:07:48.725Z,100324.22
2022-09-01T10:10:28.732Z,100313.75
2022-09-01T10:12:52.551Z,100319.63
2022-09-01T10:15:23.544Z,100322.53
2022-09-01T10:17:46.905Z,100323.00
2022-09-01T10:20:13.503Z,100334.69
2022-09-01T10:22:38.458Z,100321.69
2022-09-01T10:25:03.326Z,100321.69
2022-09-01T10:27:28.323Z,100326.91
2022-09-01T10:30:14.066Z,100322.06
2022-09-01T10:32:49.170Z,100325.91
2022-09-01T10:35:19.811Z,100314.88
2022-09-01T10:37:44.515Z,100322.16
2022-09-01T10:40:20.180Z,100327.69
2022-09-01T10:42:45.822Z,100330.41
2022-09-01T10:45:17.802Z,100322.06
2022-09-01T10:47:41.916Z,100322.06
2022-09-01T10:50:10.296Z,100329.19
2022-09-01T10:53:01.425Z,100318.13
2022-09-01T10:55:26.725Z,100320.19
2022-09-01T10:57:52.769Z,100327.09
2022-09-01T11:03:51.657Z,100334.31
2022-09-01T11:06:34.480Z,100318.63
2022-09-01T11:09:00.467Z,100307.22
2022-09-01T11:11:28.877Z,100319.47
2022-09-01T11:13:52.241Z,100323.19
2022-09-01T11:16:52.161Z,100324.69
2022-09-01T11:19:41.477Z,100324.22
2022-09-01T11:22:33.293Z,100307.31
2022-09-01T11:25:15.513Z,100311.69
2022-09-01T11:27:58.826Z,100311.50
2022-09-01T11:30:22.533Z,100310.66
2022-09-01T11:32:48.641Z,100326.75
2022-09-01T11:35:15.610Z,100310.66
2022-09-01T11:37:38.998Z,100336.28
2022-09-01T11:40:03.222Z,100313.94
2022-09-01T11:42:28.443Z,100324.94
2022-09-01T11:44:54.108Z,100324.56
2022-09-01T11:47:19.338Z,100321.88
2022-09-01T11:49:52.065Z,100317.50
2022-09-01T11:52:16.079Z,100318.31
2022-09-01T11:54:40.735Z,100336.66
2022-09-01T11:57:21.119Z,100324.84
2022-09-01T11:59:45.851Z,100323.66
2022-09-01T12:02:09.260Z,100317.22
2022-09-01T12:04:33.940Z,100321.59
2022-09-01T12:06:58.375Z,100324.84
2022-09-01T12:09:21.455Z,100314.59
2022-09-01T12:11:44.700Z,100329.81
2022-09-01T12:14:11.574Z,100328.13
2022-09-01T12:16:37.920Z,100323.44
2022-09-01T12:19:01.188Z,100322.25
2022-09-01T12:21:25.961Z,100313.53
2022-09-01T12:23:49.382Z,100319.34
2022-09-01T12:26:14.204Z,100305.50
2022-09-01T12:28:39.279Z,100315.78
2022-09-01T12:31:07.394Z,100317.66
2022-09-01T12:33:32.894Z,100305.16
2022-09-01T12:36:21.792Z,100320.19
2022-09-01T12:38:45.102Z,100321.41
2022-09-01T12:41:28.929Z,100323.75
2022-09-01T12:43:53.939Z,100329.81
2022-09-01T12:46:42.366Z,100329.44
2022-09-01T12:49:19.976Z,100332.16
2022-09-01T12:51:43.816Z,100309.00
2022-09-01T12:54:09.415Z,100323.47
2022-09-01T12:56:33.236Z,100325.34
2022-09-01T12:59:15.876Z,100339.06
2022-09-01T13:01:42.003Z,100343.66
2022-09-01T13:04:23.826Z,100352.16
2022-09-01T13:06:48.675Z,100349.81
2022-09-01T13:09:12.980Z,100356.91
2022-09-01T13:14:20.126Z,100357.00
2022-09-01T13:16:43.719Z,100362.22
2022-09-01T13:19:11.247Z,100368.50
2022-09-01T13:21:35.235Z,100364.44
2022-09-01T13:24:00.028Z,100365.13
2022-09-01T13:26:24.141Z,100367.16
2022-09-01T13:28:47.401Z,100359.03
2022-09-01T13:34:10.796Z,100347.88
2022-09-01T13:36:43.514Z,100342.47
2022-09-01T13:39:10.600Z,100354.50
2022-09-01T13:41:34.042Z,100358.72
2022-09-01T13:43:57.882Z,100351.63
2022-09-01T13:46:21.264Z,100352.47
2022-09-01T13:51:28.221Z,100363.00
2022-09-01T13:53:52.938Z,100353.66
2022-09-01T13:56:17.643Z,100352.00
2022-09-01T13:58:41.154Z,100344.75
2022-09-01T14:01:05.153Z,100340.84
2022-09-01T14:03:32.259Z,100338.34
2022-09-01T14:05:55.543Z,100344.75
2022-09-01T14:08:20.211Z,100339.66
2022-09-01T14:10:48.950Z,100341.88
2022-09-01T14:13:14.143Z,100336.94
2022-09-01T14:15:37.467Z,100330.69
2022-09-01T14:18:01.123Z,100333.41
2022-09-01T14:20:25.662Z,100332.94
2022-09-01T14:22:49.055Z,100330.22
2022-09-01T14:25:12.342Z,100332.72
2022-09-01T14:27:36.202Z,100327.31
2022-09-01T14:30:01.082Z,100320.22
2022-09-01T14:32:27.458Z,100315.63
2022-09-01T14:34:50.740Z,100309.66
2022-09-01T14:37:14.655Z,100320.31
2022-09-01T14:39:38.634Z,100306.59
2022-09-01T14:42:01.834Z,100327.06
2022-09-01T14:44:25.221Z,100321.47
2022-09-01T14:46:49.978Z,100320.97
2022-09-01T14:49:21.590Z,100315.75
2022-09-01T14:54:28.818Z,100318.75
2022-09-01T14:59:35.396Z,100325.88
2022-09-01T15:02:00.074Z,100318.09
2022-09-01T15:04:23.445Z,100327.41
2022-09-01T15:06:46.731Z,100320.13
2022-09-01T15:09:16.093Z,100329.84
2022-09-01T15:11:44.127Z,100312.56
2022-09-01T15:14:09.411Z,100309.28
2022-09-01T15:16:35.824Z,100312.72
2022-09-01T15:19:00.485Z,100314.91
2022-09-01T15:21:24.347Z,100316.78
2022-09-01T15:23:48.554Z,100321.16
2022-09-01T15:26:11.838Z,100315.28
2022-09-01T15:28:35.090Z,100312.72
2022-09-01T15:31:00.093Z,100319.53
2022-09-01T15:33:23.481Z,100316.31
2022-09-01T15:35:48.228Z,100327.66
2022-09-01T15:38:16.079Z,100331.59
2022-09-01T15:40:41.833Z,100336.00
2022-09-01T15:43:06.422Z,100341.31
2022-09-01T15:45:30.227Z,100343.56
2022-09-01T15:47:53.538Z,100340.84
2022-09-01T15:50:21.645Z,100342.72
2022-09-01T15:52:51.868Z,100343.28
2022-09-01T15:55:15.123Z,100333.75
2022-09-01T15:57:38.472Z,100349.69
2022-09-01T16:00:05.411Z,100338.88
2022-09-01T16:02:35.382Z,100337.00
2022-09-01T16:04:58.681Z,100338.41
2022-09-01T16:07:22.023Z,100339.44
2022-09-01T16:09:46.667Z,100348.88
2022-09-01T16:12:10.064Z,100348.88
2022-09-01T16:14:33.327Z,100350.63
2022-09-01T16:17:00.681Z,100351.66
2022-09-01T16:19:29.767Z,100357.91
2022-09-01T16:21:55.653Z,100359.09
2022-09-01T16:24:19.058Z,100357.56
2022-09-01T16:26:44.514Z,100362.97
2022-09-01T16:29:12.653Z,100359.94
2022-09-01T16:31:36.007Z,100355.38
2022-09-01T16:34:02.181Z,100355.19
2022-09-01T16:36:34.742Z,100354.88
2022-09-01T16:39:01.704Z,100352.38
2022-09-01T16:41:39.741Z,100356.41
2022-09-01T16:44:09.853Z,100369.66
2022-09-01T16:46:38.148Z,100359.34
2022-09-01T16:49:18.149Z,100368.31
2022-09-01T16:51:46.008Z,100366.16
2022-09-01T16:54:14.874Z,100369.91
2022-09-01T16:56:45.097Z,100386.97
2022-09-01T16:59:21.050Z,100383.44
2022-09-01T17:01:47.886Z,100375.66
2022-09-01T17:04:22.165Z,100394.78
2022-09-01T17:06:49.421Z,100395.09
2022-09-01T17:09:15.860Z,100397.25
2022-09-01T17:11:49.183Z,100403.88
2022-09-01T17:14:22.204Z,100393.19
2022-09-01T17:16:46.250Z,100401.81
2022-09-01T17:19:13.032Z,100423.09
2022-09-01T17:21:38.082Z,100409.41
2022-09-01T17:24:05.025Z,100420.72
2022-09-01T17:26:28.911Z,100430.94
2022-09-01T17:28:55.389Z,100430.69
2022-09-01T17:31:24.856Z,100432.56
2022-09-01T17:33:56.814Z,100433.25
2022-09-01T17:36:24.033Z,100437.34
2022-09-01T17:38:54.278Z,100433.94
2022-09-01T17:41:23.205Z,100427.19
2022-09-01T17:43:51.258Z,100425.50
2022-09-01T17:46:17.984Z,100435.50
2022-09-01T17:48:46.867Z,100437.38
2022-09-01T17:51:13.562Z,100441.97
2022-09-01T17:53:41.374Z,100420.84
2022-09-01T17:56:06.202Z,100442.59
2022-09-01T17:58:40.854Z,100441.25
2022-09-01T18:01:09.825Z,100440.78
2022-09-01T18:03:55.272Z,100435.03
2022-09-01T18:06:23.543Z,100433.34
2022-09-01T18:08:47.107Z,100443.97
2022-09-01T18:11:12.881Z,100444.31
2022-09-01T18:13:52.785Z,100438.25
2022-09-01T18:16:17.947Z,100444.78
2022-09-01T18:18:42.120Z,100444.09
2022-09-01T18:21:09.301Z,100453.75
2022-09-01T18:23:33.801Z,100448.06
2022-09-01T18:25:58.859Z,100459.22
2022-09-01T18:28:22.181Z,100451.13
2022-09-01T18:30:54.690Z,100459.09
2022-09-01T18:33:25.817Z,100444.78
2022-09-01T18:35:53.152Z,100457.06
2022-09-01T18:38:22.069Z,100465.66
2022-09-01T18:40:57.143Z,100452.94
2022-09-01T18:43:23.395Z,100460.41
2022-09-01T18:45:49.425Z,100464.00
2022-09-01T18:48:18.767Z,100462.13
2022-09-01T18:50:45.720Z,100468.56
2022-09-01T18:53:15.379Z,100461.69
2022-09-01T18:55:45.390Z,100471.28
2022-09-01T18:58:11.254Z,100464.53
2022-09-01T19:00:36.843Z,100470.94
2022-09-01T19:03:08.100Z,100472.66
2022-09-01T19:05:37.287Z,100471.84
2022-09-01T19:08:03.147Z,100463.88
2022-09-01T19:10:28.743Z,100480.09
2022-09-01T19:12:56.806Z,100486.28
2022-09-01T19:15:22.067Z,100476.84
2022-09-01T19:17:54.579Z,100475.81
2022-09-01T19:20:20.025Z,100468.25
2022-09-01T19:22:46.726Z,100468.28
2022-09-01T19:25:29.175Z,100478.06
2022-09-01T19:27:57.237Z,100472.97
2022-09-01T19:30:20.631Z,100473.78
2022-09-01T19:32:44.001Z,100475.63
2022-09-01T19:35:11.238Z,100474.97
2022-09-01T19:37:34.640Z,100472.06
2022-09-01T19:39:57.840Z,100467.69
2022-09-01T19:42:25.406Z,100454.41
2022-09-01T19:44:52.479Z,100469.22
2022-09-01T19:47:17.385Z,100471.72
2022-09-01T19:49:42.521Z,100469.06
2022-09-01T19:52:09.301Z,100475.53
2022-09-01T19:54:38.226Z,100462.22
2022-09-01T19:57:04.114Z,100475.38
2022-09-01T19:59:28.859Z,100475.38
2022-09-01T20:01:57.698Z,100481.63
2022-09-01T20:04:28.275Z,100478.06
2022-09-01T20:06:53.710Z,100482.66
2022-09-01T20:09:18.791Z,100462.06
2022-09-01T20:11:47.365Z,100479.09
2022-09-01T20:14:20.314Z,100480.97
2022-09-01T20:16:44.833Z,100481.66
2022-09-01T20:19:11.815Z,100483.81
2022-09-01T20:21:40.118Z,100485.00
2022-09-01T20:24:05.865Z,100492.28
2022-09-01T20:26:32.764Z,100489.59
2022-09-01T20:28:57.609Z,100490.78
2022-09-01T20:31:25.106Z,100497.03
2022-09-01T20:33:50.705Z,100475.06
2022-09-01T20:36:17.477Z,100488.94
2022-09-01T20:39:03.917Z,100489.59
2022-09-01T20:41:28.971Z,100483.97
2022-09-01T20:43:52.507Z,100492.13
2022-09-01T20:46:19.205Z,100496.03
2022-09-01T20:48:43.773Z,100505.00
2022-09-01T20:51:09.163Z,100509.03
2022-09-01T20:53:42.970Z,100503.81
2022-09-01T20:56:09.122Z,100504.09
2022-09-01T20:58:34.927Z,100492.81
2022-09-01T21:01:04.589Z,100492.84
2022-09-01T21:03:34.061Z,100504.50
2022-09-01T21:06:01.187Z,100502.63
2022-09-01T21:08:34.001Z,100498.25
2022-09-01T21:11:01.197Z,100507.84
2022-09-01T21:13:35.593Z,100508.34
2022-09-01T21:16:03.043Z,100503.28
2022-09-01T21:18:58.430Z,100500.59
2022-09-01T21:21:24.320Z,100501.78
2022-09-01T21:23:47.564Z,100496.19
2022-09-01T21:26:12.310Z,100498.38
2022-09-01T21:28:35.552Z,100493.13
2022-09-01T21:31:00.018Z,100496.84
2022-09-01T21:33:23.438Z,100491.28
2022-09-01T21:35:48.138Z,100494.34
2022-09-01T21:38:11.353Z,100495.88
2022-09-01T21:40:34.692Z,100497.88
2022-09-01T21:43:01.401Z,100497.53
2022-09-01T21:45:24.645Z,100492.66
2022-09-01T21:47:49.628Z,100494.38
2022-09-01T21:50:13.213Z,100489.31
2022-09-01T21:52:36.423Z,100483.38
2022-09-01T21:54:59.703Z,100485.72
2022-09-01T21:57:23.539Z,100484.03
2022-09-01T21:59:48.179Z,100492.16
2022-09-01T22:02:11.519Z,100496.38
2022-09-01T22:04:37.088Z,100489.31
2022-09-01T22:07:00.298Z,100484.53
2022-09-01T22:09:23.947Z,100489.31
2022-09-01T22:11:47.228Z,100479.81
2022-09-01T22:14:10.816Z,100475.41
2022-09-01T22:16:35.446Z,100481.50
2022-09-01T22:18:59.594Z,100471.88
2022-09-01T22:21:23.561Z,100469.69
2022-09-01T22:23:47.013Z,100476.41
2022-09-01T22:26:14.966Z,100466.13
2022-09-01T22:28:38.917Z,100469.00
2022-09-01T22:31:02.295Z,100469.84
2022-09-01T22:33:27.293Z,100470.19
2022-09-01T22:35:54.190Z,100466.50
2022-09-01T22:38:17.538Z,100466.16
2022-09-01T22:40:45.183Z,100466.66
2022-09-01T22:43:08.414Z,100468.13
2022-09-01T22:45:31.704Z,100471.69
2022-09-01T22:47:54.998Z,100468.78
2022-09-01T22:50:19.706Z,100471.34
2022-09-01T22:52:43.763Z,100471.84
2022-09-01T22:55:08.904Z,100471.34
2022-09-01T22:57:32.661Z,100464.41
2022-09-01T22:59:55.904Z,100468.25
2022-09-01T23:02:19.523Z,100464.75
2022-09-01T23:04:42.900Z,100471.69
2022-09-01T23:07:07.652Z,100468.97
2022-09-01T23:09:30.937Z,100466.44
2022-09-01T23:11:54.261Z,100462.22
2022-09-01T23:14:18.574Z,100459.38
2022-09-01T23:16:41.832Z,100460.25
2022-09-01T23:19:05.513Z,100457.00
2022-09-01T23:21:30.561Z,100461.09
2022-09-01T23:23:58.639Z,100459.69
2022-09-01T23:26:22.316Z,100456.00
2022-09-01T23:28:45.812Z,100452.59
2022-09-01T23:31:09.881Z,100456.50
2022-09-01T23:33:33.141Z,100460.91
2022-09-01T23:35:57.067Z,100458.38
2022-09-01T23:38:21.201Z,100460.03
2022-09-01T23:40:46.894Z,100456.50
2022-09-01T23:43:10.393Z,100455.84
2022-09-01T23:45:35.834Z,100462.06
2022-09-01T23:47:59.565Z,100450.09
2022-09-01T23:50:22.841Z,100451.09
2022-09-01T23:52:46.428Z,100457.53
2022-09-01T23:55:10.504Z,100458.38
2022-09-01T23:57:35.206Z,100458.88
2022-09-01T23:59:58.567Z,100456.34
